Flight Track Log - Related Links

Times and Time Zones

All times are in EDT time to prevent confusion due to time zone crossing. See the BAW1385 flight status page for this flight to view local times or setup timezone preferences in your user account.

Time Position Orientation Groundspeed Altitude Reporting Facility
EDT Latitude Longitude Course Direction KTS MPH feet Rate Location/Type
Thu 02:36:00 AM 53.3033 -2.2237 149° Southeast  Level Estimated
Thu 02:37:00 AM 53.2528 -2.1727 149° Southeast  Level Estimated
Thu 02:38:00 AM 53.2023 -2.1217 149° Southeast  Level Estimated
Thu 02:39:00 AM 53.1518 -2.0708 149° Southeast  Level Estimated
Thu 02:40:00 AM 53.1012 -2.0201 149° Southeast  Level Estimated
Thu 02:41:00 AM 53.0507 -1.9695 149° Southeast  Level Estimated
Thu 02:42:00 AM 53.0001 -1.9190 149° Southeast  Level Estimated
Thu 02:43:00 AM 52.9495 -1.8686 149° Southeast  Level Estimated
Thu 02:44:00 AM 52.8988 -1.8184 149° Southeast  Level Estimated
Thu 02:45:00 AM 52.8482 -1.7682 149° Southeast  Level Estimated
Thu 02:46:00 AM 52.7975 -1.7182 149° Southeast  Level Estimated
Thu 02:47:00 AM 52.7468 -1.6683 149° Southeast  Level Estimated
Thu 02:48:00 AM 52.6961 -1.6185 149° Southeast  Level Estimated
Thu 02:49:00 AM 52.6454 -1.5688 149° Southeast  Level Estimated
Thu 02:50:00 AM 52.5947 -1.5193 149° Southeast  Level Estimated
Thu 02:51:00 AM 52.5439 -1.4698 149° Southeast  Level Estimated
Thu 02:52:00 AM 52.4931 -1.4205 149° Southeast  Level Estimated
Thu 02:53:00 AM 52.4422 -1.3713 149° Southeast  Level Estimated
Thu 02:54:00 AM 52.3914 -1.3222 149° Southeast  Level Estimated
Thu 02:55:00 AM 52.3572 -1.2892 150° Southeast  Level Estimated
Thu 02:56:00 AM 52.3230 -1.2563 150° Southeast  Level Estimated
Thu 02:57:00 AM 52.2887 -1.2234 150° Southeast  Level Estimated
Thu 02:58:00 AM 52.2545 -1.1906 150° Southeast  Level Estimated
Thu 02:59:00 AM 52.2203 -1.1578 150° Southeast  Level Estimated
Thu 03:00:00 AM 52.1860 -1.1251 150° Southeast  Level Estimated
Thu 03:01:00 AM 52.1517 -1.0924 150° Southeast  Level Estimated
Thu 03:02:00 AM 52.1175 -1.0598 150° Southeast  Level Estimated
Thu 03:03:00 AM 52.0832 -1.0272 150° Southeast  Level Estimated
Thu 03:04:00 AM 52.0489 -0.9947 150° Southeast  Level Estimated
Thu 03:05:00 AM 52.0146 -0.9623 150° Southeast  Level Estimated
Thu 03:06:00 AM 51.9803 -0.9298 150° Southeast  Level Estimated
Thu 03:07:00 AM 51.9460 -0.8975 150° Southeast  Level Estimated
Thu 03:08:00 AM 51.9116 -0.8651 150° Southeast  Level Estimated
Thu 03:09:00 AM 51.8773 -0.8329 150° Southeast  Level Estimated
Thu 03:10:00 AM 51.8429 -0.8007 150° Southeast  Level Estimated
Thu 03:11:00 AM 51.8079 -0.7679 150° Southeast  Level Estimated
Thu 03:12:00 AM 51.7729 -0.7352 150° Southeast  Level Estimated
Thu 03:13:00 AM 51.7379 -0.7025 150° Southeast  Level Estimated
Thu 03:14:00 AM 51.7029 -0.6699 150° Southeast  Level Estimated
Thu 03:15:00 AM 51.6679 -0.6374 150° Southeast  Level Estimated
Thu 03:16:00 AM 51.6329 -0.6048 150° Southeast  Level Estimated
Thu 03:17:00 AM 51.5978 -0.5724 150° Southeast  Level Estimated
Thu 03:18:00 AM 51.5628 -0.5400 150° Southeast  Level Estimated
Thu 03:19:00 AM 51.5295 -0.5093 150° Southeast  Level Estimated
Thu 03:20:00 AM 51.4963 -0.4787 150° Southeast  Level Estimated
Thu 03:21:00 AM 51.4775 -0.4614 150° Southeast  Level Estimated
Thu 03:22:00 AM 51.4775 -0.4614 90° East  Level Estimated
Thu 03:23:00 AM 51.4775 -0.4614 90° East  Level Estimated
Thu 03:24:00 AM 51.4775 -0.4614 90° East  Level Estimated
Thu 03:25:00 AM 51.4775 -0.4614 90° East  Level Estimated
Thu 03:26:00 AM 51.4775 -0.4614 90° East  Level Estimated
Thu 03:27:00 AM 51.4775 -0.4614 90° East  Level Estimated
Thu 03:28:00 AM 51.4775 -0.4614 90° East  Level Estimated
Thu 03:29:00 AM 51.4775 -0.4614 90° East  Level Estimated
Thu 03:30:00 AM 51.4775 -0.4614 90° East  Level Estimated
Thu 03:31:00 AM 51.4775 -0.4614 90° East  Level Estimated

Login

Don't have an account? Register now (free) for customized features, flight alerts, and more!